Main page
METAR-TAF:

METAR-TAF

Airports :

Cabo Frio International Airport

Cabo Frio, Rio de Janeiro, Brazil

latitude: 22-55-15S, longitude: 042-04-17W, elevation: 7 m

Current weather observation

The report was made 2 hours and 14 minutes ago, at 21:00 UTC
Wind 6 kt from the East/Northeast
Temperature 25°C
Humidity 83%
Pressure 1013 hPa
Visibility 10 km or more
Few clouds at a height of 3000 ft
Broken clouds at a height of 8000 ft

METAR: SBCB 202100Z 06006KT 9999 FEW030 BKN080 25/22 Q1013

Time: 20:14 (23:14 UTC)

Forecast

The report was made 8 hours and 14 minutes ago, at 15:00 UTC
Forecast valid from 20 at 18 UTC to 21 at 18 UTC
Wind 15 kt from the East/Northeast
Visibility 10 km or more
Few clouds at a height of 2500 ft
Becoming
from 21 at 09 UTC to 21 at 11 UTC
Wind 5 kt from the Northeast
Becoming
from 21 at 13 UTC to 21 at 15 UTC
Wind 10 kt from the Southwest

TAF: SBCB 201500Z 2018/2118 07015KT 9999 FEW025 TX28/2018Z TN21/2109Z BECMG 2109/2111 05005KT BECMG 2113/2115 23010KT RMK PHD

Weather observations and forecasts of more than 4000 airports (METAR and TAF reports).

The available stations are represented by yellow and red dots on the map.

Hover mouse over dot to see the name of the station.

Then click to see weather observations and forecasts.

To change the map : click on the green buttons with a black cross to zoom in, on the green button with a dash to zoom out, or on the green arrows for adjacent maps.


METAR-TAF: